Time;durP1;ratioP1;P1;durP2;ratioP2;P2;SDS_P1;SDS_P2;PMS_P1;PMS_P2;Temp;Humidity;BMP_temperature;BMP_pressure;BME280_temperature;BME280_humidity;BME280_pressure;Samples;Min_cycle;Max_cycle;Signal;HPM_P1;HPM_P2
2020/12/16 00:01:55;;;;;;;14.50;12.00;;;;;;;6.22;85.00;101124.16;5058587;28;20510;-88
2020/12/16 00:04:59;;;;;;;15.48;12.18;;;;;;;6.21;85.19;101122.44;5056962;28;20043;-88
2020/12/16 00:08:04;;;;;;;14.95;12.93;;;;;;;6.18;85.07;101125.28;5061286;28;20414;-87
2020/12/16 00:11:08;;;;;;;17.98;13.25;;;;;;;6.18;85.55;101119.94;5073010;28;20052;-87
2020/12/16 00:14:13;;;;;;;16.20;13.27;;;;;;;6.23;85.60;101123.19;5053620;28;20052;-87
2020/12/16 00:17:18;;;;;;;16.98;13.43;;;;;;;6.31;85.27;101119.16;5053641;28;20095;-87
2020/12/16 00:20:22;;;;;;;18.13;13.68;;;;;;;6.29;84.97;101112.19;5053573;28;20056;-85
2020/12/16 00:23:26;;;;;;;18.45;13.60;;;;;;;6.26;85.03;101109.69;5041260;28;20060;-90
2020/12/16 00:26:32;;;;;;;17.67;13.65;;;;;;;6.27;84.98;101098.94;5063181;28;20383;-79
2020/12/16 00:29:40;;;;;;;16.80;13.57;;;;;;;6.27;84.81;101098.94;5069104;28;20051;-86
2020/12/16 00:32:45;;;;;;;16.65;13.75;;;;;;;6.29;85.08;101093.53;5076257;28;20060;-87
2020/12/16 00:35:49;;;;;;;15.48;12.93;;;;;;;6.31;85.06;101096.97;5045359;28;20056;-86
2020/12/16 00:38:54;;;;;;;17.42;14.40;;;;;;;6.34;84.76;101104.78;5057445;28;20075;-87
2020/12/16 00:41:58;;;;;;;17.40;13.57;;;;;;;6.33;84.83;101109.25;5065464;28;20044;-83
2020/12/16 00:45:05;;;;;;;16.45;13.13;;;;;;;6.37;84.89;101104.63;5064877;28;20051;-77
2020/12/16 00:48:09;;;;;;;14.48;12.23;;;;;;;6.33;84.55;101101.25;5061304;28;20055;-79
2020/12/16 00:51:13;;;;;;;15.88;12.70;;;;;;;6.35;84.24;101107.34;5053489;28;20111;-80
2020/12/16 00:54:18;;;;;;;20.00;13.38;;;;;;;6.41;83.99;101114.16;5064656;28;20044;-83
2020/12/16 00:57:22;;;;;;;14.65;10.55;;;;;;;6.45;83.59;101126.34;5064279;28;20048;-81
2020/12/16 01:00:27;;;;;;;12.48;10.80;;;;;;;6.48;83.72;101134.16;5054483;28;20059;-85
2020/12/16 01:03:36;;;;;;;13.32;10.82;;;;;;;6.47;83.83;101132.44;5044821;28;20059;-78
2020/12/16 01:06:40;;;;;;;15.50;10.43;;;;;;;6.45;83.37;101139.66;5057038;28;20377;-79
2020/12/16 01:09:46;;;;;;;12.85;9.63;;;;;;;6.40;83.01;101141.75;5053377;28;20519;-88
2020/12/16 01:12:50;;;;;;;15.40;9.70;;;;;;;6.47;83.03;101148.44;5071849;28;20047;-79
2020/12/16 01:15:57;;;;;;;14.07;10.45;;;;;;;6.44;83.32;101137.97;5048983;28;20400;-86
2020/12/16 01:19:06;;;;;;;13.43;10.70;;;;;;;6.41;83.37;101138.16;5044336;28;20394;-78
2020/12/16 01:22:13;;;;;;;12.93;10.25;;;;;;;6.48;83.37;101144.84;5062741;28;20123;-82
2020/12/16 01:25:22;;;;;;;13.20;11.45;;;;;;;6.50;83.34;101143.78;5064225;28;20051;-88
2020/12/16 01:28:29;;;;;;;17.30;11.48;;;;;;;6.48;83.28;101136.84;5032364;28;20056;-81
2020/12/16 01:31:39;;;;;;;14.80;10.70;;;;;;;6.46;83.21;101131.59;5063238;28;20498;-86
2020/12/16 01:34:46;;;;;;;12.98;10.27;;;;;;;6.48;83.20;101126.16;5057552;28;20075;-89
2020/12/16 01:37:54;;;;;;;11.73;10.20;;;;;;;6.48;82.78;101128.84;5031814;28;20056;-86
2020/12/16 01:41:05;;;;;;;11.70;9.52;;;;;;;6.50;82.60;101133.13;5043803;28;20059;-86
2020/12/16 01:44:18;;;;;;;13.70;9.73;;;;;;;6.49;82.72;101143.91;5044132;28;20052;-85
2020/12/16 01:47:25;;;;;;;14.52;9.95;;;;;;;6.53;82.90;101146.28;5043736;28;20063;-87
2020/12/16 01:50:39;;;;;;;13.40;10.65;;;;;;;6.57;83.02;101154.94;5048222;28;20059;-85
2020/12/16 01:53:46;;;;;;;10.80;9.32;;;;;;;6.54;83.00;101157.81;5043700;28;20048;-82
2020/12/16 01:56:55;;;;;;;12.93;9.85;;;;;;;6.54;82.80;101168.50;5043331;28;20056;-87
2020/12/16 02:00:14;;;;;;;10.98;8.90;;;;;;;6.61;82.79;101175.19;5044852;28;20068;-87
2020/12/16 02:03:22;;;;;;;12.88;9.15;;;;;;;6.53;82.81;101175.63;5055804;28;20048;-86
2020/12/16 02:06:55;;;;;;;11.10;8.52;;;;;;;6.53;82.89;101174.75;5043320;28;20052;-87
2020/12/16 02:09:59;;;;;;;11.70;9.00;;;;;;;6.47;83.16;101186.63;5061991;28;20051;-87
2020/12/16 02:13:07;;;;;;;12.48;8.85;;;;;;;6.51;83.20;101188.19;5059520;28;20055;-88
2020/12/16 02:16:14;;;;;;;11.00;8.43;;;;;;;6.53;83.42;101185.44;5059598;28;20399;-87
2020/12/16 02:19:20;;;;;;;10.65;9.18;;;;;;;6.48;83.45;101188.38;5053769;28;20051;-81
2020/12/16 02:22:36;;;;;;;11.93;9.15;;;;;;;6.53;83.54;101194.28;5063108;28;20384;-80
2020/12/16 02:25:40;;;;;;;12.15;9.32;;;;;;;6.57;83.65;101188.78;5075310;28;20056;-78
2020/12/16 02:28:50;;;;;;;11.48;9.55;;;;;;;6.58;83.79;101191.34;5051580;28;20047;-81
2020/12/16 02:31:56;;;;;;;12.95;9.40;;;;;;;6.60;84.00;101201.94;5050250;28;20048;-80
2020/12/16 02:35:01;;;;;;;11.90;9.82;;;;;;;6.61;83.88;101214.31;5073977;28;20052;-80
2020/12/16 02:38:05;;;;;;;13.55;9.45;;;;;;;6.54;84.26;101203.16;5062010;28;20056;-86
2020/12/16 02:41:11;;;;;;;12.32;10.13;;;;;;;6.56;84.30;101193.25;5042470;28;20044;-87
2020/12/16 02:44:16;;;;;;;16.85;11.00;;;;;;;6.59;84.50;101193.09;5042872;28;20052;-86
2020/12/16 02:47:31;;;;;;;15.60;10.55;;;;;;;6.62;84.40;101187.56;5042589;28;20052;-83
2020/12/16 02:50:36;;;;;;;13.70;11.02;;;;;;;6.63;84.15;101191.09;5042157;28;20380;-86
2020/12/16 02:53:40;;;;;;;15.55;10.77;;;;;;;6.65;83.99;101199.84;5068446;28;20111;-89
2020/12/16 02:57:17;;;;;;;18.45;11.80;;;;;;;6.65;84.29;101206.06;5049990;28;20392;-87
2020/12/16 03:00:24;;;;;;;14.68;11.23;;;;;;;6.66;84.40;101213.13;5050966;28;20055;-82
2020/12/16 03:03:43;;;;;;;15.65;11.50;;;;;;;6.64;84.83;101190.97;5059428;28;20060;-87
2020/12/16 03:07:10;;;;;;;14.02;11.02;;;;;;;6.58;84.71;101188.69;5054615;28;20055;-86
2020/12/16 03:10:17;;;;;;;15.18;12.00;;;;;;;6.59;85.01;101174.41;5042112;28;20399;-88
2020/12/16 03:13:21;;;;;;;17.35;11.63;;;;;;;6.57;84.76;101170.97;5050822;28;20076;-89
2020/12/16 03:16:26;;;;;;;14.65;10.43;;;;;;;6.61;84.46;101174.31;5048797;28;20154;-89
2020/12/16 03:19:41;;;;;;;13.20;10.57;;;;;;;6.65;84.27;101199.84;5062199;28;20056;-87
2020/12/16 03:22:46;;;;;;;16.52;12.52;;;;;;;6.57;84.88;101181.63;5047299;28;20045;-86
2020/12/16 03:26:13;;;;;;;13.75;11.38;;;;;;;6.49;86.23;101167.91;5061188;28;20048;-89
2020/12/16 03:29:34;;;;;;;13.45;10.98;;;;;;;6.53;85.82;101164.97;5059471;28;20052;-86
2020/12/16 03:32:57;;;;;;;12.68;10.73;;;;;;;6.51;86.07;101171.34;5061822;28;20051;-83
2020/12/16 03:36:19;;;;;;;13.70;11.13;;;;;;;6.55;86.02;101179.06;5062167;28;20498;-86
2020/12/16 03:39:25;;;;;;;13.20;10.98;;;;;;;6.59;86.16;101192.22;5061876;28;20067;-87
2020/12/16 03:42:30;;;;;;;14.43;11.07;;;;;;;6.55;86.47;101194.19;5056405;28;20047;-90
2020/12/16 03:45:35;;;;;;;14.77;11.13;;;;;;;6.59;86.95;101209.09;5049298;28;20056;-88
2020/12/16 03:48:41;;;;;;;14.27;11.27;;;;;;;6.57;87.56;101219.84;5041555;28;20052;-90
2020/12/16 03:51:50;;;;;;;13.40;11.60;;;;;;;6.53;87.89;101207.63;5053720;28;20051;-89
2020/12/16 03:54:55;;;;;;;14.43;11.95;;;;;;;6.54;88.36;101219.16;5046588;28;20059;-85
2020/12/16 03:58:08;;;;;;;14.63;11.18;;;;;;;6.54;88.88;101221.84;5032366;28;20056;-78
2020/12/16 04:01:32;;;;;;;13.47;11.10;;;;;;;6.47;89.26;101220.44;5032839;28;20060;-90
2020/12/16 04:04:36;;;;;;;14.50;11.05;;;;;;;6.45;89.51;101227.66;5032835;28;20060;-85
2020/12/16 04:07:44;;;;;;;14.88;11.60;;;;;;;6.46;89.34;101234.75;5032835;28;20064;-80
2020/12/16 04:11:15;;;;;;;15.93;12.18;;;;;;;6.45;89.75;101241.88;5033596;28;20052;-85
2020/12/16 04:14:23;;;;;;;15.88;13.05;;;;;;;6.50;89.77;101241.59;5038083;28;20515;-89
2020/12/16 04:17:32;;;;;;;16.73;13.85;;;;;;;6.49;90.38;101258.56;5027434;28;20400;-84
2020/12/16 04:20:46;;;;;;;20.52;17.35;;;;;;;6.52;89.97;101259.25;5046817;28;20113;-84
2020/12/16 04:23:51;;;;;;;18.38;16.45;;;;;;;6.53;89.61;101260.97;5037107;28;20048;-85
2020/12/16 04:27:08;;;;;;;20.45;18.27;;;;;;;6.58;89.69;101260.72;5032739;28;20052;-81
2020/12/16 04:30:14;;;;;;;21.80;19.23;;;;;;;6.59;89.70;101264.25;5032668;28;20365;-82
2020/12/16 04:33:23;;;;;;;23.30;20.50;;;;;;;6.54;89.84;101261.84;5032511;28;20048;-86
2020/12/16 04:36:28;;;;;;;22.63;19.05;;;;;;;6.57;89.90;101248.31;5032415;28;20068;-82
2020/12/16 04:39:32;;;;;;;23.83;20.02;;;;;;;6.58;90.01;101244.69;5024951;28;20056;-83
2020/12/16 04:42:38;;;;;;;23.35;19.58;;;;;;;6.55;90.00;101251.06;5049272;28;20056;-83
2020/12/16 04:45:43;;;;;;;25.60;20.25;;;;;;;6.53;89.77;101252.09;5052151;28;20052;-85
2020/12/16 04:48:49;;;;;;;25.25;19.00;;;;;;;6.50;90.03;101245.13;5052474;28;20056;-86
2020/12/16 04:52:10;;;;;;;23.73;19.35;;;;;;;6.50;89.79;101249.59;5052317;28;20048;-85
2020/12/16 04:55:31;;;;;;;22.80;19.10;;;;;;;6.47;89.76;101252.44;5052133;28;20048;-85
2020/12/16 04:58:50;;;;;;;20.20;17.65;;;;;;;6.37;89.98;101243.28;5036637;28;20057;-86
2020/12/16 05:01:54;;;;;;;22.38;18.70;;;;;;;6.38;89.68;101229.84;5039064;28;20542;-84
2020/12/16 05:05:04;;;;;;;23.73;19.33;;;;;;;6.38;89.95;101236.97;5046419;28;21688;-85
2020/12/16 05:08:10;;;;;;;23.63;17.83;;;;;;;6.31;90.25;101240.94;5050798;28;20055;-87
2020/12/16 05:11:22;;;;;;;23.17;17.25;;;;;;;6.26;90.17;101240.31;5052744;28;20505;-84
2020/12/16 05:14:26;;;;;;;23.40;18.13;;;;;;;6.19;90.32;101244.28;5055988;28;20068;-88
2020/12/16 05:17:30;;;;;;;26.75;18.90;;;;;;;6.18;90.59;101251.41;5057014;28;20387;-88
2020/12/16 05:21:03;;;;;;;23.15;18.98;;;;;;;6.21;90.11;101247.72;5055954;28;20048;-86
2020/12/16 05:24:13;;;;;;;22.15;18.38;;;;;;;6.28;89.41;101231.28;5047213;28;20056;-86
2020/12/16 05:27:29;;;;;;;19.02;17.00;;;;;;;6.31;89.44;101227.59;5050630;28;20052;-90
2020/12/16 05:30:35;;;;;;;18.55;16.23;;;;;;;6.31;89.15;101224.94;5056396;28;20084;-85
2020/12/16 05:33:48;;;;;;;20.48;16.10;;;;;;;6.33;89.01;101234.56;5056414;28;20494;-87
2020/12/16 05:36:52;;;;;;;19.70;15.70;;;;;;;6.39;89.08;101238.69;5043433;28;20052;-82
2020/12/16 05:40:09;;;;;;;20.17;16.55;;;;;;;6.44;89.19;101240.13;5067996;28;20059;-85
2020/12/16 05:43:25;;;;;;;19.83;16.70;;;;;;;6.44;89.28;101245.47;5054358;28;20064;-90
2020/12/16 05:46:29;;;;;;;20.67;16.88;;;;;;;6.41;89.93;101251.00;5046563;28;20049;-90
2020/12/16 05:49:34;;;;;;;20.55;17.30;;;;;;;6.45;89.89;101255.22;5036189;28;20392;-85
2020/12/16 05:52:38;;;;;;;18.40;16.48;;;;;;;6.48;90.05;101246.16;5041069;28;20047;-85
2020/12/16 05:55:42;;;;;;;18.95;16.50;;;;;;;6.40;89.82;101248.41;5056526;28;20044;-81
2020/12/16 05:58:47;;;;;;;17.10;15.30;;;;;;;6.43;90.14;101253.56;5055013;28;20220;-90
2020/12/16 06:01:52;;;;;;;21.45;15.80;;;;;;;6.39;89.41;101257.38;5056065;28;20155;-86
2020/12/16 06:04:58;;;;;;;44.65;36.42;;;;;;;6.37;89.41;101254.75;5049236;28;20419;-88
2020/12/16 06:08:04;;;;;;;82.20;58.75;;;;;;;6.37;89.29;101268.09;5047509;28;20056;-88
2020/12/16 06:11:11;;;;;;;48.70;34.75;;;;;;;6.45;89.11;101267.66;5035508;28;20052;-90
2020/12/16 06:14:21;;;;;;;29.17;22.20;;;;;;;6.40;89.52;101264.41;5044798;28;20056;-90
2020/12/16 06:17:25;;;;;;;22.45;17.00;;;;;;;6.43;89.19;101273.09;5055852;28;20052;-86
2020/12/16 06:20:36;;;;;;;18.60;16.60;;;;;;;6.46;89.30;101275.59;5055780;28;20380;-86
2020/12/16 06:23:42;;;;;;;30.17;25.40;;;;;;;6.50;89.47;101285.16;5034938;28;20491;-88
2020/12/16 06:26:52;;;;;;;26.83;21.23;;;;;;;6.44;89.51;101280.13;5037175;28;20041;-88
2020/12/16 06:30:00;;;;;;;26.55;20.77;;;;;;;6.50;89.46;101294.94;5040724;28;20052;-87
2020/12/16 06:33:18;;;;;;;25.63;20.90;;;;;;;6.43;89.53;101288.22;5027851;28;20072;-85
2020/12/16 06:36:32;;;;;;;22.60;17.17;;;;;;;6.41;89.43;101291.00;5035772;28;20052;-91
2020/12/16 06:39:40;;;;;;;22.15;14.70;;;;;;;6.38;88.96;101287.63;5035333;28;20072;-88
2020/12/16 06:42:45;;;;;;;17.67;13.77;;;;;;;6.38;88.26;101299.16;5044137;28;20059;-87
2020/12/16 06:45:49;;;;;;;17.80;14.32;;;;;;;6.43;87.71;101297.09;5041657;28;20052;-89
2020/12/16 06:48:54;;;;;;;20.65;14.48;;;;;;;6.48;87.54;101304.84;5053484;28;20483;-85
2020/12/16 06:52:07;;;;;;;18.15;15.02;;;;;;;6.51;88.54;101321.53;5041720;28;20052;-85
2020/12/16 06:55:12;;;;;;;29.50;23.35;;;;;;;6.57;88.84;101314.16;5054242;28;20048;-87
2020/12/16 06:58:38;;;;;;;24.88;18.92;;;;;;;6.57;88.49;101323.00;5053518;28;20056;-87
2020/12/16 07:01:42;;;;;;;25.63;18.42;;;;;;;6.56;88.93;101318.63;5051968;28;20048;-90
2020/12/16 07:04:46;;;;;;;20.35;16.08;;;;;;;6.60;88.65;101333.50;5048434;28;20104;-86
2020/12/16 07:07:57;;;;;;;23.38;16.67;;;;;;;6.57;88.89;101330.16;5043868;28;20052;-86
2020/12/16 07:11:01;;;;;;;21.10;16.77;;;;;;;6.59;88.78;101323.78;5048314;28;20052;-88
2020/12/16 07:14:14;;;;;;;18.67;15.38;;;;;;;6.59;88.32;101323.78;5054850;28;20487;-89
2020/12/16 07:17:18;;;;;;;25.00;15.85;;;;;;;6.57;88.73;101342.53;5054738;28;20060;-80
2020/12/16 07:20:32;;;;;;;22.10;16.95;;;;;;;6.45;89.44;101340.53;5054660;28;20140;-75
2020/12/16 07:23:43;;;;;;;22.38;18.20;;;;;;;6.41;90.02;101339.00;5045984;28;20496;-78
2020/12/16 07:26:53;;;;;;;19.65;15.80;;;;;;;6.45;90.12;101348.53;5034059;28;20404;-84
2020/12/16 07:29:58;;;;;;;24.75;18.42;;;;;;;6.55;89.95;101348.88;5034604;28;20051;-87
2020/12/16 07:33:16;;;;;;;20.92;16.70;;;;;;;6.64;90.00;101347.53;5033680;28;20053;-85
2020/12/16 07:36:22;;;;;;;20.67;16.08;;;;;;;6.80;89.57;101362.59;5033621;28;20052;-83
2020/12/16 07:39:27;;;;;;;24.13;17.52;;;;;;;6.98;89.52;101360.69;5037016;28;20072;-84
2020/12/16 07:42:35;;;;;;;23.20;17.98;;;;;;;7.12;89.07;101360.75;5046058;28;20049;-80
2020/12/16 07:45:41;;;;;;;20.67;16.80;;;;;;;7.35;87.23;101354.97;5045231;28;20048;-77
2020/12/16 07:48:45;;;;;;;22.08;15.48;;;;;;;7.36;86.11;101364.66;5038707;28;20048;-76
2020/12/16 07:51:49;;;;;;;19.27;16.00;;;;;;;7.29;85.75;101357.09;5041357;28;20057;-79
2020/12/16 07:54:54;;;;;;;21.73;16.00;;;;;;;7.34;86.14;101355.03;5047666;28;20464;-77
2020/12/16 07:58:09;;;;;;;21.38;17.00;;;;;;;7.13;86.69;101357.16;5063426;28;20055;-77
2020/12/16 08:01:18;;;;;;;24.58;17.95;;;;;;;7.02;86.91;101367.56;5066824;28;20047;-75
2020/12/16 08:04:23;;;;;;;29.27;20.77;;;;;;;6.98;87.88;101372.25;5073119;28;20051;-77
2020/12/16 08:07:28;;;;;;;41.00;34.80;;;;;;;6.95;87.71;101383.09;5073061;28;20067;-77
2020/12/16 08:10:32;;;;;;;46.90;39.42;;;;;;;6.93;87.66;101376.09;5050328;28;20051;-77
2020/12/16 08:13:37;;;;;;;42.38;36.97;;;;;;;6.89;88.26;101383.41;5060240;28;20139;-78
2020/12/16 08:16:44;;;;;;;28.60;23.17;;;;;;;6.92;88.62;101385.91;5072714;28;20048;-77
2020/12/16 08:19:48;;;;;;;24.17;20.58;;;;;;;7.09;88.56;101408.97;5072110;28;20051;-81
2020/12/16 08:23:00;;;;;;;20.02;17.40;;;;;;;7.11;88.36;101397.25;5073111;28;20043;-81
2020/12/16 08:26:05;;;;;;;22.60;16.20;;;;;;;7.20;88.19;101407.44;5071769;28;20047;-79
2020/12/16 08:29:09;;;;;;;20.17;16.95;;;;;;;7.26;88.11;101411.53;5072530;28;20035;-82
2020/12/16 08:32:17;;;;;;;;;;;;;;;7.25;87.63;101406.31;5073226;28;20051;-83
2020/12/16 08:35:26;;;;;;;21.00;16.48;;;;;;;7.32;87.81;101415.69;5073007;28;19912;-80
2020/12/16 08:38:43;;;;;;;19.17;16.00;;;;;;;7.31;87.72;101405.97;5072836;28;20063;-82
2020/12/16 08:41:54;;;;;;;25.27;16.90;;;;;;;7.28;87.91;101400.81;5048970;28;20047;-79
2020/12/16 08:45:07;;;;;;;21.05;16.60;;;;;;;7.16;88.37;101407.69;5067868;28;20138;-81
2020/12/16 08:48:12;;;;;;;;;;;;;;;7.11;88.31;101410.63;5050466;28;20040;-81
2020/12/16 08:51:23;;;;;;;18.02;15.52;;;;;;;7.17;88.67;101407.59;5074146;28;19938;-80
2020/12/16 08:54:28;;;;;;;20.40;16.50;;;;;;;7.12;88.58;101398.13;5070486;28;20047;-77
2020/12/16 08:57:34;;;;;;;22.17;17.77;;;;;;;7.17;88.97;101396.94;5069201;28;20047;-81
2020/12/16 09:00:38;;;;;;;20.70;18.33;;;;;;;7.26;89.48;101402.69;5076643;28;20059;-79
2020/12/16 09:03:42;;;;;;;24.20;17.45;;;;;;;7.32;89.38;101399.66;5075737;28;20056;-80
2020/12/16 09:07:17;;;;;;;23.15;20.58;;;;;;;7.32;89.80;101407.66;5063909;28;20048;-81
2020/12/16 09:10:22;;;;;;;21.98;18.38;;;;;;;7.34;90.00;101411.97;5071002;28;20067;-80
2020/12/16 09:13:30;;;;;;;20.05;17.30;;;;;;;7.51;89.26;101400.31;5059781;28;20059;-81
2020/12/16 09:16:35;;;;;;;22.30;18.17;;;;;;;7.73;88.50;101400.75;5043921;28;20048;-80
2020/12/16 09:19:41;;;;;;;18.95;16.95;;;;;;;7.78;87.63;101410.25;5056585;28;20052;-80
2020/12/16 09:22:47;;;;;;;22.95;19.73;;;;;;;7.82;87.37;101418.94;5055978;28;20064;-81
2020/12/16 09:25:55;;;;;;;23.98;19.52;;;;;;;7.70;87.69;101415.16;5070272;28;20039;-81
2020/12/16 09:28:59;;;;;;;18.60;16.35;;;;;;;7.79;87.82;101406.63;5051084;28;20521;-84
2020/12/16 09:32:18;;;;;;;19.27;16.75;;;;;;;7.88;87.81;101407.88;5055673;28;20052;-84
2020/12/16 09:35:24;;;;;;;21.38;17.50;;;;;;;8.04;87.63;101400.66;5055634;28;20048;-82
2020/12/16 09:38:29;;;;;;;20.17;16.63;;;;;;;8.34;86.44;101414.88;5055679;28;20068;-79
2020/12/16 09:41:44;;;;;;;19.10;16.13;;;;;;;8.67;85.50;101405.66;5055697;28;20068;-80
2020/12/16 09:44:48;;;;;;;19.17;16.77;;;;;;;8.78;84.36;101411.22;5055815;28;20503;-77
2020/12/16 09:47:54;;;;;;;20.13;16.30;;;;;;;8.93;83.69;101405.75;5043501;28;20052;-80
2020/12/16 09:51:11;;;;;;;22.60;17.27;;;;;;;8.97;82.89;101401.91;5059220;28;20120;-81
2020/12/16 09:54:29;;;;;;;21.70;17.35;;;;;;;8.87;83.16;101405.28;5065168;28;20084;-79
2020/12/16 09:57:33;;;;;;;20.75;16.95;;;;;;;8.82;83.22;101396.66;5074616;28;20403;-79
2020/12/16 10:00:40;;;;;;;23.52;18.08;;;;;;;8.90;83.24;101402.41;5062057;28;20063;-81
2020/12/16 10:03:47;;;;;;;22.38;17.25;;;;;;;9.46;83.00;101396.88;5075454;28;20055;-79
2020/12/16 10:06:52;;;;;;;18.40;15.60;;;;;;;10.49;78.64;101394.25;5075182;28;20047;-80
2020/12/16 10:09:56;;;;;;;17.45;15.43;;;;;;;10.97;74.13;101391.59;5074997;28;20041;-79
2020/12/16 10:13:00;;;;;;;18.50;15.73;;;;;;;10.97;73.06;101391.59;5074295;28;20052;-79
2020/12/16 10:16:10;;;;;;;17.63;15.73;;;;;;;10.96;72.32;101383.66;5067575;28;20044;-79
2020/12/16 10:19:16;;;;;;;17.63;15.57;;;;;;;10.78;73.17;101384.97;5075027;28;20399;-80
2020/12/16 10:22:21;;;;;;;16.45;14.73;;;;;;;11.05;72.30;101375.78;5042390;28;20049;-79
2020/12/16 10:25:25;;;;;;;17.55;15.00;;;;;;;11.29;71.52;101372.22;5045642;28;20044;-80
2020/12/16 10:28:30;;;;;;;19.02;16.00;;;;;;;11.51;71.34;101375.03;5056275;28;20041;-80
2020/12/16 10:31:34;;;;;;;19.25;15.65;;;;;;;11.72;69.35;101374.31;5054706;28;20048;-80
2020/12/16 10:34:41;;;;;;;17.65;15.85;;;;;;;11.79;68.52;101374.69;5055996;28;20045;-79
2020/12/16 10:37:45;;;;;;;20.30;18.17;;;;;;;11.71;68.10;101374.41;5054385;28;20045;-79
2020/12/16 10:40:50;;;;;;;20.05;17.75;;;;;;;11.65;69.43;101372.16;5068341;28;20044;-81
2020/12/16 10:43:55;;;;;;;21.95;17.55;;;;;;;11.64;69.53;101371.31;5062300;28;20403;-80
2020/12/16 10:46:59;;;;;;;17.75;15.85;;;;;;;11.66;70.10;101365.78;5054475;28;20045;-81
2020/12/16 10:50:04;;;;;;;18.95;16.55;;;;;;;11.72;70.01;101370.75;5053964;28;20041;-82
2020/12/16 10:53:08;;;;;;;19.67;17.58;;;;;;;11.73;69.77;101367.06;5071667;28;20056;-81
2020/12/16 10:56:13;;;;;;;18.48;16.60;;;;;;;11.62;69.77;101367.88;5072989;28;20036;-81
2020/12/16 10:59:18;;;;;;;18.75;16.83;;;;;;;11.49;69.59;101364.38;5054129;28;20041;-82
2020/12/16 11:02:22;;;;;;;20.00;16.90;;;;;;;11.38;69.39;101358.13;5060049;28;20044;-82
2020/12/16 11:05:27;;;;;;;18.85;16.90;;;;;;;11.26;70.55;101362.56;5061566;28;20387;-82
2020/12/16 11:08:46;;;;;;;20.33;17.55;;;;;;;11.23;70.07;101353.88;5029588;28;20140;-82
2020/12/16 11:11:52;;;;;;;22.15;18.25;;;;;;;11.27;70.10;101347.28;5053760;28;20037;-81
2020/12/16 11:14:57;;;;;;;19.95;17.75;;;;;;;11.47;69.76;101350.22;5053942;28;20045;-86
2020/12/16 11:18:01;;;;;;;22.30;17.70;;;;;;;11.75;69.28;101351.69;5059535;28;20395;-81
2020/12/16 11:21:06;;;;;;;21.65;17.65;;;;;;;11.93;68.33;101349.38;5053876;28;20041;-83
2020/12/16 11:24:12;;;;;;;21.23;18.23;;;;;;;11.84;67.66;101350.13;5065642;28;20040;-83
2020/12/16 11:27:17;;;;;;;20.90;18.38;;;;;;;11.90;67.28;101337.03;5047570;28;20388;-78
2020/12/16 11:30:21;;;;;;;19.73;16.92;;;;;;;11.86;67.54;101337.41;5041111;28;20044;-82
2020/12/16 11:33:26;;;;;;;19.95;17.55;;;;;;;11.92;66.47;101327.03;5053884;28;20045;-79
2020/12/16 11:36:30;;;;;;;18.98;16.90;;;;;;;12.07;66.17;101323.13;5073812;28;20048;-79
2020/12/16 11:39:35;;;;;;;19.45;16.27;;;;;;;12.18;65.79;101322.28;5073722;28;20052;-81
2020/12/16 11:42:40;;;;;;;19.10;16.73;;;;;;;12.44;65.16;101315.69;5073429;28;20048;-80
2020/12/16 11:45:44;;;;;;;18.20;16.02;;;;;;;12.49;65.14;101321.56;5066223;28;20045;-80
2020/12/16 11:48:48;;;;;;;16.73;14.98;;;;;;;12.25;65.17;101313.59;5071782;28;20048;-79
2020/12/16 11:51:54;;;;;;;17.17;15.13;;;;;;;12.12;65.00;101317.41;5071325;28;20052;-79
2020/12/16 11:54:58;;;;;;;16.75;14.73;;;;;;;12.14;65.33;101319.00;5073322;28;20044;-79
2020/12/16 11:58:03;;;;;;;17.50;15.60;;;;;;;12.31;65.30;101299.66;5051910;28;20404;-79
2020/12/16 12:01:10;;;;;;;16.58;14.68;;;;;;;12.50;65.22;101309.81;5051736;28;20045;-79
2020/12/16 12:04:15;;;;;;;18.88;15.65;;;;;;;12.44;65.96;101304.06;5043179;28;20041;-79
2020/12/16 12:07:19;;;;;;;16.50;14.73;;;;;;;12.49;66.14;101308.09;5053106;28;20048;-79
2020/12/16 12:10:24;;;;;;;14.57;12.75;;;;;;;12.19;64.41;101311.41;5043034;28;20042;-80
2020/12/16 12:13:28;;;;;;;15.40;13.73;;;;;;;12.00;64.91;101308.44;5032153;28;20033;-79
2020/12/16 12:16:34;;;;;;;17.35;15.48;;;;;;;11.96;66.57;101316.88;5039495;28;20416;-79
2020/12/16 12:19:40;;;;;;;17.70;15.88;;;;;;;11.90;67.69;101318.19;5046858;28;20049;-77
2020/12/16 12:22:45;;;;;;;18.77;14.20;;;;;;;11.92;66.39;101316.28;5036685;28;20041;-80
2020/12/16 12:25:49;;;;;;;15.55;13.95;;;;;;;11.96;66.35;101317.75;5036927;28;20037;-78
2020/12/16 12:28:54;;;;;;;17.63;14.50;;;;;;;12.04;66.85;101314.44;5036369;28;20049;-79
2020/12/16 12:31:58;;;;;;;17.50;14.45;;;;;;;11.97;66.13;101319.47;5036884;28;20057;-78
2020/12/16 12:35:03;;;;;;;15.80;13.88;;;;;;;12.00;66.88;101324.56;5037053;28;20029;-79
2020/12/16 12:38:07;;;;;;;18.17;15.13;;;;;;;11.91;67.19;101325.31;5035915;28;20492;-77
2020/12/16 12:41:15;;;;;;;17.98;14.93;;;;;;;11.78;67.48;101315.63;5036864;28;20046;-76
2020/12/16 12:44:20;;;;;;;15.70;14.07;;;;;;;11.77;67.76;101311.22;5037442;28;20050;-74
2020/12/16 12:47:25;;;;;;;15.60;13.43;;;;;;;11.70;68.53;101314.38;5036587;28;20042;-75
2020/12/16 12:50:29;;;;;;;18.23;13.68;;;;;;;11.68;67.98;101319.00;5036380;28;20045;-77
2020/12/16 12:53:34;;;;;;;15.38;13.70;;;;;;;11.67;68.60;101311.03;5038794;28;20408;-75
2020/12/16 12:56:38;;;;;;;17.17;12.75;;;;;;;11.72;68.36;101304.38;5024650;28;20396;-77
2020/12/16 12:59:43;;;;;;;30.77;13.75;;;;;;;11.96;66.51;101298.91;5036522;28;20049;-78
2020/12/16 13:02:47;;;;;;;17.70;12.15;;;;;;;12.06;66.17;101307.97;5036602;28;20053;-77
2020/12/16 13:05:52;;;;;;;13.82;12.07;;;;;;;12.19;64.96;101306.03;5037178;28;20500;-77
2020/12/16 13:08:57;;;;;;;14.77;12.10;;;;;;;12.26;64.87;101314.47;5043983;28;20045;-76
2020/12/16 13:12:07;;;;;;;15.80;12.07;;;;;;;12.19;64.93;101308.72;5047264;28;20404;-78
2020/12/16 13:15:11;;;;;;;14.25;12.77;;;;;;;12.13;65.68;101308.31;5036398;28;20053;-80
2020/12/16 13:18:16;;;;;;;14.55;12.02;;;;;;;12.13;64.87;101298.44;5035984;28;20045;-77
2020/12/16 13:21:20;;;;;;;11.82;10.57;;;;;;;12.18;65.01;101307.00;5036065;28;20049;-78
2020/12/16 13:24:25;;;;;;;17.20;12.40;;;;;;;12.25;64.58;101296.59;5036208;28;20485;-78
2020/12/16 13:27:29;;;;;;;16.25;12.32;;;;;;;12.23;65.28;101298.53;5038353;28;20045;-77
2020/12/16 13:30:33;;;;;;;12.70;11.40;;;;;;;12.04;65.72;101301.00;5051074;28;20504;-79
2020/12/16 13:33:38;;;;;;;20.65;14.38;;;;;;;12.04;67.00;101307.22;5054908;28;20037;-77
2020/12/16 13:36:43;;;;;;;18.45;13.40;;;;;;;12.02;68.00;101306.50;5056317;28;20045;-77
2020/12/16 13:39:48;;;;;;;16.73;14.02;;;;;;;11.81;68.06;101307.31;5056030;28;20041;-78
2020/12/16 13:42:52;;;;;;;14.70;13.20;;;;;;;11.69;68.92;101304.59;5055252;28;20049;-79
2020/12/16 13:45:57;;;;;;;16.15;14.25;;;;;;;11.47;68.92;101309.88;5045694;28;20049;-80
2020/12/16 13:49:01;;;;;;;17.50;14.77;;;;;;;11.45;70.10;101305.59;5035305;28;20037;-78
2020/12/16 13:52:07;;;;;;;16.52;14.02;;;;;;;11.42;71.13;101316.56;5047841;28;20052;-78
2020/12/16 13:55:15;;;;;;;16.70;13.82;;;;;;;11.27;71.31;101309.66;5032162;28;20045;-80
2020/12/16 13:58:19;;;;;;;18.17;13.60;;;;;;;11.13;71.73;101307.16;5048350;28;20758;-79
2020/12/16 14:01:28;;;;;;;16.58;14.73;;;;;;;10.96;72.24;101309.28;5055591;28;20045;-79
2020/12/16 14:04:32;;;;;;;15.90;14.23;;;;;;;10.88;72.91;101311.69;5055761;28;20045;-78
2020/12/16 14:07:37;;;;;;;22.20;16.02;;;;;;;10.85;73.66;101306.53;5075275;28;20036;-79
2020/12/16 14:10:41;;;;;;;25.45;17.60;;;;;;;10.55;75.71;101314.13;5069364;28;20033;-79
2020/12/16 14:13:50;;;;;;;23.98;19.95;;;;;;;10.35;77.21;101320.94;5062889;28;20048;-79
2020/12/16 14:16:54;;;;;;;26.25;20.20;;;;;;;10.39;77.47;101322.44;5071876;28;20058;-77
2020/12/16 14:20:01;;;;;;;25.48;18.63;;;;;;;10.40;78.21;101334.03;5060666;28;20053;-79
2020/12/16 14:23:06;;;;;;;23.92;19.17;;;;;;;10.29;78.55;101329.44;5045432;28;20089;-78